sensor_id;sensor_type;location;lat;lon;timestamp;temperature;humidity
9371;DHT22;4725;48.384;8.984;2022-12-10T00:01:05;-0.80;99.90
9371;DHT22;4725;48.384;8.984;2022-12-10T00:03:34;-0.80;99.90
9371;DHT22;4725;48.384;8.984;2022-12-10T00:06:01;-0.80;99.90
9371;DHT22;4725;48.384;8.984;2022-12-10T00:08:28;-0.90;99.90
9371;DHT22;4725;48.384;8.984;2022-12-10T00:10:56;-0.90;99.90
9371;DHT22;4725;48.384;8.984;2022-12-10T00:13:23;-0.90;99.90
9371;DHT22;4725;48.384;8.984;2022-12-10T00:15:50;-0.80;99.90
9371;DHT22;4725;48.384;8.984;2022-12-10T00:18:17;-0.80;99.90
9371;DHT22;4725;48.384;8.984;2022-12-10T00:20:45;-0.90;99.90
9371;DHT22;4725;48.384;8.984;2022-12-10T00:23:12;-0.90;99.90
9371;DHT22;4725;48.384;8.984;2022-12-10T00:25:39;-0.80;99.90
9371;DHT22;4725;48.384;8.984;2022-12-10T00:28:06;-0.90;99.90
9371;DHT22;4725;48.384;8.984;2022-12-10T00:30:33;-0.90;99.90
9371;DHT22;4725;48.384;8.984;2022-12-10T00:35:28;-0.80;99.90
9371;DHT22;4725;48.384;8.984;2022-12-10T00:37:56;-0.90;99.90
9371;DHT22;4725;48.384;8.984;2022-12-10T00:40:23;0.70;99.90
9371;DHT22;4725;48.384;8.984;2022-12-10T00:42:50;-0.90;99.90
9371;DHT22;4725;48.384;8.984;2022-12-10T00:45:18;-0.90;99.90
9371;DHT22;4725;48.384;8.984;2022-12-10T00:47:45;-0.80;99.90
9371;DHT22;4725;48.384;8.984;2022-12-10T00:50:12;-0.90;99.90
9371;DHT22;4725;48.384;8.984;2022-12-10T00:52:39;-0.90;99.90
9371;DHT22;4725;48.384;8.984;2022-12-10T00:55:07;-0.80;99.90
9371;DHT22;4725;48.384;8.984;2022-12-10T00:57:34;-0.90;99.90
9371;DHT22;4725;48.384;8.984;2022-12-10T01:00:01;-0.80;99.90
9371;DHT22;4725;48.384;8.984;2022-12-10T01:02:29;-0.90;99.90
9371;DHT22;4725;48.384;8.984;2022-12-10T01:04:56;-0.80;99.90
9371;DHT22;4725;48.384;8.984;2022-12-10T01:07:22;-0.80;99.90
9371;DHT22;4725;48.384;8.984;2022-12-10T01:09:49;-0.80;99.90
9371;DHT22;4725;48.384;8.984;2022-12-10T01:12:18;-0.80;99.90
9371;DHT22;4725;48.384;8.984;2022-12-10T01:14:45;-0.80;99.90
9371;DHT22;4725;48.384;8.984;2022-12-10T01:17:12;-0.70;99.90
9371;DHT22;4725;48.384;8.984;2022-12-10T01:19:38;-0.80;99.90
9371;DHT22;4725;48.384;8.984;2022-12-10T01:22:05;-0.80;99.90
9371;DHT22;4725;48.384;8.984;2022-12-10T01:24:32;-0.70;99.90
9371;DHT22;4725;48.384;8.984;2022-12-10T01:27:00;-0.80;99.90
9371;DHT22;4725;48.384;8.984;2022-12-10T01:29:30;-0.80;99.90
9371;DHT22;4725;48.384;8.984;2022-12-10T01:31:57;-0.80;99.90
9371;DHT22;4725;48.384;8.984;2022-12-10T01:34:24;-0.80;99.90
9371;DHT22;4725;48.384;8.984;2022-12-10T01:36:53;-0.80;99.90
9371;DHT22;4725;48.384;8.984;2022-12-10T01:39:21;-0.80;99.90
9371;DHT22;4725;48.384;8.984;2022-12-10T01:41:50;-0.80;99.90
9371;DHT22;4725;48.384;8.984;2022-12-10T01:47:23;-0.80;99.90
9371;DHT22;4725;48.384;8.984;2022-12-10T01:49:50;-0.80;99.90
9371;DHT22;4725;48.384;8.984;2022-12-10T01:52:18;-0.80;99.90
9371;DHT22;4725;48.384;8.984;2022-12-10T01:54:46;-0.80;99.90
9371;DHT22;4725;48.384;8.984;2022-12-10T01:57:15;-0.80;99.90
9371;DHT22;4725;48.384;8.984;2022-12-10T01:59:44;-0.80;99.90
9371;DHT22;4725;48.384;8.984;2022-12-10T02:02:19;-0.80;99.90
9371;DHT22;4725;48.384;8.984;2022-12-10T02:05:01;-0.80;99.90
9371;DHT22;4725;48.384;8.984;2022-12-10T02:07:39;-0.80;99.90
9371;DHT22;4725;48.384;8.984;2022-12-10T02:10:15;-0.80;99.90
9371;DHT22;4725;48.384;8.984;2022-12-10T02:12:48;-0.80;99.90
9371;DHT22;4725;48.384;8.984;2022-12-10T02:15:20;-0.80;99.90
9371;DHT22;4725;48.384;8.984;2022-12-10T02:17:50;-0.80;99.90
9371;DHT22;4725;48.384;8.984;2022-12-10T02:20:22;-0.80;99.90
9371;DHT22;4725;48.384;8.984;2022-12-10T02:22:53;-0.80;99.90
9371;DHT22;4725;48.384;8.984;2022-12-10T02:25:25;-0.80;99.90
9371;DHT22;4725;48.384;8.984;2022-12-10T02:27:57;-0.40;99.90
9371;DHT22;4725;48.384;8.984;2022-12-10T02:30:28;-0.80;99.90
9371;DHT22;4725;48.384;8.984;2022-12-10T02:32:57;-0.80;99.90
9371;DHT22;4725;48.384;8.984;2022-12-10T02:35:27;-0.90;99.90
9371;DHT22;4725;48.384;8.984;2022-12-10T02:37:59;-0.80;99.90
9371;DHT22;4725;48.384;8.984;2022-12-10T02:40:31;-0.70;99.90
9371;DHT22;4725;48.384;8.984;2022-12-10T02:42:59;-0.80;99.90
9371;DHT22;4725;48.384;8.984;2022-12-10T02:45:28;-0.70;99.90
9371;DHT22;4725;48.384;8.984;2022-12-10T02:47:58;-0.70;99.90
9371;DHT22;4725;48.384;8.984;2022-12-10T02:50:25;-0.70;99.90
9371;DHT22;4725;48.384;8.984;2022-12-10T02:52:52;-0.80;99.90
9371;DHT22;4725;48.384;8.984;2022-12-10T02:55:19;-0.70;99.90
9371;DHT22;4725;48.384;8.984;2022-12-10T02:57:56;-0.70;99.90
9371;DHT22;4725;48.384;8.984;2022-12-10T03:00:27;-0.70;99.90
9371;DHT22;4725;48.384;8.984;2022-12-10T03:03:08;-0.80;99.90
9371;DHT22;4725;48.384;8.984;2022-12-10T03:05:44;-0.70;99.90
9371;DHT22;4725;48.384;8.984;2022-12-10T03:08:16;-0.70;99.90
9371;DHT22;4725;48.384;8.984;2022-12-10T03:10:50;-0.80;99.90
9371;DHT22;4725;48.384;8.984;2022-12-10T03:13:23;-3.50;99.90
9371;DHT22;4725;48.384;8.984;2022-12-10T03:15:55;-0.80;99.90
9371;DHT22;4725;48.384;8.984;2022-12-10T03:18:24;-0.80;99.90
9371;DHT22;4725;48.384;8.984;2022-12-10T03:20:53;-1.40;99.90
9371;DHT22;4725;48.384;8.984;2022-12-10T03:23:22;-0.70;99.90
9371;DHT22;4725;48.384;8.984;2022-12-10T03:25:50;-0.70;99.90
9371;DHT22;4725;48.384;8.984;2022-12-10T03:28:18;-0.70;99.90
9371;DHT22;4725;48.384;8.984;2022-12-10T03:30:47;-0.60;99.90
9371;DHT22;4725;48.384;8.984;2022-12-10T03:33:16;-0.60;99.90
9371;DHT22;4725;48.384;8.984;2022-12-10T03:35:43;-0.60;99.90
9371;DHT22;4725;48.384;8.984;2022-12-10T03:38:11;-0.50;99.90
9371;DHT22;4725;48.384;8.984;2022-12-10T03:40:39;-0.50;99.90
9371;DHT22;4725;48.384;8.984;2022-12-10T03:43:06;-0.50;99.90
9371;DHT22;4725;48.384;8.984;2022-12-10T03:45:33;-0.60;99.90
9371;DHT22;4725;48.384;8.984;2022-12-10T03:48:00;-0.60;99.90
9371;DHT22;4725;48.384;8.984;2022-12-10T03:50:28;-0.60;99.90
9371;DHT22;4725;48.384;8.984;2022-12-10T03:52:55;0.20;99.90
9371;DHT22;4725;48.384;8.984;2022-12-10T03:55:22;-0.60;99.90
9371;DHT22;4725;48.384;8.984;2022-12-10T03:57:49;-0.60;99.90
9371;DHT22;4725;48.384;8.984;2022-12-10T04:00:16;-0.70;99.90
9371;DHT22;4725;48.384;8.984;2022-12-10T04:02:43;-0.60;99.90
9371;DHT22;4725;48.384;8.984;2022-12-10T04:05:10;-0.60;99.90
9371;DHT22;4725;48.384;8.984;2022-12-10T04:07:39;-0.60;99.90
9371;DHT22;4725;48.384;8.984;2022-12-10T04:10:06;-0.60;99.90
9371;DHT22;4725;48.384;8.984;2022-12-10T04:12:34;-0.60;99.90
9371;DHT22;4725;48.384;8.984;2022-12-10T04:15:01;-0.60;99.90
9371;DHT22;4725;48.384;8.984;2022-12-10T04:17:45;-0.60;99.90
9371;DHT22;4725;48.384;8.984;2022-12-10T04:20:12;-0.60;99.90
9371;DHT22;4725;48.384;8.984;2022-12-10T04:22:54;-0.60;99.90
9371;DHT22;4725;48.384;8.984;2022-12-10T04:25:39;-0.60;99.90
9371;DHT22;4725;48.384;8.984;2022-12-10T04:30:50;-0.50;99.90
9371;DHT22;4725;48.384;8.984;2022-12-10T04:33:17;-0.50;99.90
9371;DHT22;4725;48.384;8.984;2022-12-10T04:35:44;-0.60;99.90
9371;DHT22;4725;48.384;8.984;2022-12-10T04:38:13;-0.60;99.90
9371;DHT22;4725;48.384;8.984;2022-12-10T04:40:40;-0.50;99.90
9371;DHT22;4725;48.384;8.984;2022-12-10T04:43:07;-0.50;99.90
9371;DHT22;4725;48.384;8.984;2022-12-10T04:45:34;-0.50;99.90
9371;DHT22;4725;48.384;8.984;2022-12-10T04:48:02;-0.40;99.90
9371;DHT22;4725;48.384;8.984;2022-12-10T04:50:29;-0.50;99.90
9371;DHT22;4725;48.384;8.984;2022-12-10T04:52:56;-0.50;99.90
9371;DHT22;4725;48.384;8.984;2022-12-10T04:55:24;-0.50;99.90
9371;DHT22;4725;48.384;8.984;2022-12-10T04:57:51;-0.50;99.90
9371;DHT22;4725;48.384;8.984;2022-12-10T05:00:18;-0.50;99.90
9371;DHT22;4725;48.384;8.984;2022-12-10T05:02:48;-0.50;99.90
9371;DHT22;4725;48.384;8.984;2022-12-10T05:05:15;-0.50;99.90
9371;DHT22;4725;48.384;8.984;2022-12-10T05:07:42;-0.50;99.90
9371;DHT22;4725;48.384;8.984;2022-12-10T05:10:09;-0.50;99.90
9371;DHT22;4725;48.384;8.984;2022-12-10T05:12:37;-0.50;99.90
9371;DHT22;4725;48.384;8.984;2022-12-10T05:15:05;-0.40;99.90
9371;DHT22;4725;48.384;8.984;2022-12-10T05:17:33;-0.40;99.90
9371;DHT22;4725;48.384;8.984;2022-12-10T05:20:00;-0.50;99.90
9371;DHT22;4725;48.384;8.984;2022-12-10T05:22:27;-0.40;99.90
9371;DHT22;4725;48.384;8.984;2022-12-10T05:25:11;-0.50;99.90
9371;DHT22;4725;48.384;8.984;2022-12-10T05:27:40;-0.50;99.90
9371;DHT22;4725;48.384;8.984;2022-12-10T05:30:08;-0.50;99.90
9371;DHT22;4725;48.384;8.984;2022-12-10T05:32:35;-0.50;99.90
9371;DHT22;4725;48.384;8.984;2022-12-10T05:35:03;-0.50;99.90
9371;DHT22;4725;48.384;8.984;2022-12-10T05:37:30;-0.60;99.90
9371;DHT22;4725;48.384;8.984;2022-12-10T05:39:57;-0.50;99.90
9371;DHT22;4725;48.384;8.984;2022-12-10T05:42:24;-0.50;99.90
9371;DHT22;4725;48.384;8.984;2022-12-10T05:44:52;-0.60;99.90
9371;DHT22;4725;48.384;8.984;2022-12-10T05:47:19;-0.50;99.90
9371;DHT22;4725;48.384;8.984;2022-12-10T05:49:46;-0.60;99.90
9371;DHT22;4725;48.384;8.984;2022-12-10T05:52:13;-0.50;99.90
9371;DHT22;4725;48.384;8.984;2022-12-10T05:54:40;-0.50;99.90
9371;DHT22;4725;48.384;8.984;2022-12-10T05:57:07;-0.50;99.90
9371;DHT22;4725;48.384;8.984;2022-12-10T05:59:34;-0.40;99.90
9371;DHT22;4725;48.384;8.984;2022-12-10T06:02:03;-0.40;99.90
9371;DHT22;4725;48.384;8.984;2022-12-10T06:04:30;-0.30;99.90
9371;DHT22;4725;48.384;8.984;2022-12-10T06:06:57;-0.30;99.90
9371;DHT22;4725;48.384;8.984;2022-12-10T06:09:24;-0.40;99.90
9371;DHT22;4725;48.384;8.984;2022-12-10T06:11:50;1.80;99.90
9371;DHT22;4725;48.384;8.984;2022-12-10T06:14:17;-0.40;99.90
9371;DHT22;4725;48.384;8.984;2022-12-10T06:16:44;-0.40;99.90
9371;DHT22;4725;48.384;8.984;2022-12-10T06:19:13;-0.40;99.90
9371;DHT22;4725;48.384;8.984;2022-12-10T06:21:40;-0.40;99.90
9371;DHT22;4725;48.384;8.984;2022-12-10T06:24:07;-0.40;99.90
9371;DHT22;4725;48.384;8.984;2022-12-10T06:26:34;-0.40;99.90
9371;DHT22;4725;48.384;8.984;2022-12-10T06:29:01;-0.40;99.90
9371;DHT22;4725;48.384;8.984;2022-12-10T06:31:30;-0.40;99.90
9371;DHT22;4725;48.384;8.984;2022-12-10T06:33:57;-0.40;99.90
9371;DHT22;4725;48.384;8.984;2022-12-10T06:36:25;-0.40;99.90
9371;DHT22;4725;48.384;8.984;2022-12-10T06:38:52;-0.30;99.90
9371;DHT22;4725;48.384;8.984;2022-12-10T06:41:19;-0.30;99.90
9371;DHT22;4725;48.384;8.984;2022-12-10T06:43:47;-0.30;99.90
9371;DHT22;4725;48.384;8.984;2022-12-10T06:46:15;-0.40;99.90
9371;DHT22;4725;48.384;8.984;2022-12-10T06:48:43;-0.40;99.90
9371;DHT22;4725;48.384;8.984;2022-12-10T06:51:11;-0.40;99.90
9371;DHT22;4725;48.384;8.984;2022-12-10T06:53:40;-0.40;99.90
9371;DHT22;4725;48.384;8.984;2022-12-10T06:56:09;-0.30;99.90
9371;DHT22;4725;48.384;8.984;2022-12-10T06:58:38;-0.40;99.90
9371;DHT22;4725;48.384;8.984;2022-12-10T07:01:07;-0.40;99.90
9371;DHT22;4725;48.384;8.984;2022-12-10T07:03:35;-0.30;99.90
9371;DHT22;4725;48.384;8.984;2022-12-10T07:06:03;-0.40;99.90
9371;DHT22;4725;48.384;8.984;2022-12-10T07:08:31;-0.40;99.90
9371;DHT22;4725;48.384;8.984;2022-12-10T07:11:02;-0.40;99.90
9371;DHT22;4725;48.384;8.984;2022-12-10T07:13:29;-0.30;99.90
9371;DHT22;4725;48.384;8.984;2022-12-10T07:15:56;-0.40;99.90
9371;DHT22;4725;48.384;8.984;2022-12-10T07:18:23;-0.30;99.90
9371;DHT22;4725;48.384;8.984;2022-12-10T07:20:50;-0.30;99.90
9371;DHT22;4725;48.384;8.984;2022-12-10T07:23:17;-0.40;99.90
9371;DHT22;4725;48.384;8.984;2022-12-10T07:25:44;-0.30;99.90
9371;DHT22;4725;48.384;8.984;2022-12-10T07:28:13;-0.30;99.90
9371;DHT22;4725;48.384;8.984;2022-12-10T07:30:40;-0.40;99.90
9371;DHT22;4725;48.384;8.984;2022-12-10T07:33:07;-0.30;99.90
9371;DHT22;4725;48.384;8.984;2022-12-10T07:35:34;-0.40;99.90
9371;DHT22;4725;48.384;8.984;2022-12-10T07:38:01;-0.30;99.90
9371;DHT22;4725;48.384;8.984;2022-12-10T07:40:28;-0.30;99.90
9371;DHT22;4725;48.384;8.984;2022-12-10T07:42:55;-0.30;99.90
9371;DHT22;4725;48.384;8.984;2022-12-10T07:45:23;-0.30;99.90
9371;DHT22;4725;48.384;8.984;2022-12-10T07:47:50;-0.30;99.90
9371;DHT22;4725;48.384;8.984;2022-12-10T07:50:17;-0.30;99.90
9371;DHT22;4725;48.384;8.984;2022-12-10T07:52:44;-0.30;99.90
9371;DHT22;4725;48.384;8.984;2022-12-10T07:55:11;-0.30;99.90
9371;DHT22;4725;48.384;8.984;2022-12-10T07:57:38;-0.40;99.90
9371;DHT22;4725;48.384;8.984;2022-12-10T08:00:06;-0.30;99.90
9371;DHT22;4725;48.384;8.984;2022-12-10T08:02:35;-0.30;99.90
9371;DHT22;4725;48.384;8.984;2022-12-10T08:05:02;-0.30;99.90
9371;DHT22;4725;48.384;8.984;2022-12-10T08:07:29;-0.20;99.90
9371;DHT22;4725;48.384;8.984;2022-12-10T08:09:56;-0.20;99.90
9371;DHT22;4725;48.384;8.984;2022-12-10T08:12:23;-0.20;99.90
9371;DHT22;4725;48.384;8.984;2022-12-10T08:14:50;-0.20;99.90
9371;DHT22;4725;48.384;8.984;2022-12-10T08:17:17;-0.30;99.90
9371;DHT22;4725;48.384;8.984;2022-12-10T08:19:45;-0.20;99.90
9371;DHT22;4725;48.384;8.984;2022-12-10T08:22:12;-0.10;99.90
9371;DHT22;4725;48.384;8.984;2022-12-10T08:24:39;-0.20;99.90
9371;DHT22;4725;48.384;8.984;2022-12-10T08:27:06;-0.20;99.90
9371;DHT22;4725;48.384;8.984;2022-12-10T08:29:33;-0.10;99.90
9371;DHT22;4725;48.384;8.984;2022-12-10T08:32:00;-0.10;99.90
9371;DHT22;4725;48.384;8.984;2022-12-10T08:34:27;0.00;99.90
9371;DHT22;4725;48.384;8.984;2022-12-10T08:36:55;0.00;99.90
9371;DHT22;4725;48.384;8.984;2022-12-10T08:39:22;0.00;99.90
9371;DHT22;4725;48.384;8.984;2022-12-10T08:41:49;0.00;99.90
9371;DHT22;4725;48.384;8.984;2022-12-10T08:44:16;0.00;99.90
9371;DHT22;4725;48.384;8.984;2022-12-10T08:46:43;0.00;99.90
9371;DHT22;4725;48.384;8.984;2022-12-10T08:49:10;0.00;99.90
9371;DHT22;4725;48.384;8.984;2022-12-10T08:51:37;0.00;99.90
9371;DHT22;4725;48.384;8.984;2022-12-10T08:54:05;0.00;99.90
9371;DHT22;4725;48.384;8.984;2022-12-10T08:56:32;0.00;99.90
9371;DHT22;4725;48.384;8.984;2022-12-10T08:59:00;0.20;99.90
9371;DHT22;4725;48.384;8.984;2022-12-10T09:01:27;0.20;99.90
9371;DHT22;4725;48.384;8.984;2022-12-10T09:03:54;0.20;99.90
9371;DHT22;4725;48.384;8.984;2022-12-10T09:06:22;0.10;99.90
9371;DHT22;4725;48.384;8.984;2022-12-10T09:08:51;0.10;99.90
9371;DHT22;4725;48.384;8.984;2022-12-10T09:11:22;-0.60;99.90
9371;DHT22;4725;48.384;8.984;2022-12-10T09:13:49;0.10;99.90
9371;DHT22;4725;48.384;8.984;2022-12-10T09:16:16;0.10;99.90
9371;DHT22;4725;48.384;8.984;2022-12-10T09:18:44;0.10;99.90
9371;DHT22;4725;48.384;8.984;2022-12-10T09:21:12;0.10;99.90
9371;DHT22;4725;48.384;8.984;2022-12-10T09:23:40;0.10;99.90
9371;DHT22;4725;48.384;8.984;2022-12-10T09:26:09;0.20;99.90
9371;DHT22;4725;48.384;8.984;2022-12-10T09:28:37;0.20;99.90
9371;DHT22;4725;48.384;8.984;2022-12-10T09:31:06;0.30;99.90
9371;DHT22;4725;48.384;8.984;2022-12-10T09:33:35;0.30;99.90
9371;DHT22;4725;48.384;8.984;2022-12-10T09:36:03;0.30;99.90
9371;DHT22;4725;48.384;8.984;2022-12-10T09:38:31;0.30;99.90
9371;DHT22;4725;48.384;8.984;2022-12-10T09:41:01;0.50;99.90
9371;DHT22;4725;48.384;8.984;2022-12-10T09:43:39;0.40;99.90
9371;DHT22;4725;48.384;8.984;2022-12-10T09:46:12;0.60;99.90
9371;DHT22;4725;48.384;8.984;2022-12-10T09:48:51;0.80;99.90
9371;DHT22;4725;48.384;8.984;2022-12-10T09:51:24;0.80;99.90
9371;DHT22;4725;48.384;8.984;2022-12-10T09:53:53;0.80;99.90
9371;DHT22;4725;48.384;8.984;2022-12-10T09:56:26;0.80;99.90
9371;DHT22;4725;48.384;8.984;2022-12-10T09:58:56;0.80;99.90
9371;DHT22;4725;48.384;8.984;2022-12-10T10:01:27;0.70;99.90
9371;DHT22;4725;48.384;8.984;2022-12-10T10:03:54;0.70;99.90
9371;DHT22;4725;48.384;8.984;2022-12-10T10:06:22;0.50;99.90
9371;DHT22;4725;48.384;8.984;2022-12-10T10:08:52;0.40;99.90
9371;DHT22;4725;48.384;8.984;2022-12-10T10:11:24;0.30;99.90
9371;DHT22;4725;48.384;8.984;2022-12-10T10:13:53;0.30;99.90
9371;DHT22;4725;48.384;8.984;2022-12-10T10:16:25;0.30;99.90
9371;DHT22;4725;48.384;8.984;2022-12-10T10:18:57;0.40;99.90
9371;DHT22;4725;48.384;8.984;2022-12-10T10:21:27;0.50;99.90
9371;DHT22;4725;48.384;8.984;2022-12-10T10:23:55;0.50;99.90
9371;DHT22;4725;48.384;8.984;2022-12-10T10:26:24;0.60;99.90
9371;DHT22;4725;48.384;8.984;2022-12-10T10:28:55;0.60;99.90
9371;DHT22;4725;48.384;8.984;2022-12-10T10:31:26;0.70;99.90
9371;DHT22;4725;48.384;8.984;2022-12-10T10:33:55;0.70;99.90
9371;DHT22;4725;48.384;8.984;2022-12-10T10:36:28;0.70;99.90
9371;DHT22;4725;48.384;8.984;2022-12-10T10:38:55;0.50;99.90
9371;DHT22;4725;48.384;8.984;2022-12-10T10:41:24;0.50;99.90
9371;DHT22;4725;48.384;8.984;2022-12-10T10:43:59;0.50;99.90
9371;DHT22;4725;48.384;8.984;2022-12-10T10:46:29;0.60;99.90
9371;DHT22;4725;48.384;8.984;2022-12-10T10:49:17;0.50;99.90
9371;DHT22;4725;48.384;8.984;2022-12-10T10:51:45;0.50;99.90
9371;DHT22;4725;48.384;8.984;2022-12-10T10:54:31;0.50;99.90
9371;DHT22;4725;48.384;8.984;2022-12-10T10:57:02;0.70;99.90
9371;DHT22;4725;48.384;8.984;2022-12-10T10:59:32;0.70;99.90
9371;DHT22;4725;48.384;8.984;2022-12-10T11:02:04;0.60;99.90
9371;DHT22;4725;48.384;8.984;2022-12-10T11:04:38;0.60;99.90
9371;DHT22;4725;48.384;8.984;2022-12-10T11:07:18;0.50;99.90
9371;DHT22;4725;48.384;8.984;2022-12-10T11:09:46;0.60;99.90
9371;DHT22;4725;48.384;8.984;2022-12-10T11:12:27;0.90;99.90
9371;DHT22;4725;48.384;8.984;2022-12-10T11:14:55;1.00;99.90
9371;DHT22;4725;48.384;8.984;2022-12-10T11:17:24;1.20;99.90
9371;DHT22;4725;48.384;8.984;2022-12-10T11:19:58;1.20;99.90
9371;DHT22;4725;48.384;8.984;2022-12-10T11:22:27;1.10;99.90
9371;DHT22;4725;48.384;8.984;2022-12-10T11:24:55;1.20;99.90
9371;DHT22;4725;48.384;8.984;2022-12-10T11:27:36;1.20;99.90
9371;DHT22;4725;48.384;8.984;2022-12-10T11:30:08;1.20;99.90
9371;DHT22;4725;48.384;8.984;2022-12-10T11:32:56;1.20;99.90
9371;DHT22;4725;48.384;8.984;2022-12-10T11:35:38;1.30;99.90
9371;DHT22;4725;48.384;8.984;2022-12-10T11:38:13;1.30;99.90
9371;DHT22;4725;48.384;8.984;2022-12-10T11:40:46;1.20;99.90
9371;DHT22;4725;48.384;8.984;2022-12-10T11:43:30;1.20;99.90
9371;DHT22;4725;48.384;8.984;2022-12-10T11:46:11;1.10;99.90
9371;DHT22;4725;48.384;8.984;2022-12-10T11:48:50;1.00;99.90
9371;DHT22;4725;48.384;8.984;2022-12-10T11:51:26;0.80;99.90
9371;DHT22;4725;48.384;8.984;2022-12-10T11:54:05;0.80;99.90
9371;DHT22;4725;48.384;8.984;2022-12-10T11:56:37;0.60;99.90
9371;DHT22;4725;48.384;8.984;2022-12-10T11:59:14;0.40;99.90
9371;DHT22;4725;48.384;8.984;2022-12-10T12:04:46;0.30;99.90
9371;DHT22;4725;48.384;8.984;2022-12-10T12:07:31;0.10;99.90
9371;DHT22;4725;48.384;8.984;2022-12-10T12:10:15;0.20;99.90
9371;DHT22;4725;48.384;8.984;2022-12-10T12:12:51;0.30;99.90
9371;DHT22;4725;48.384;8.984;2022-12-10T12:15:25;0.40;99.90
9371;DHT22;4725;48.384;8.984;2022-12-10T12:17:57;0.40;99.90
9371;DHT22;4725;48.384;8.984;2022-12-10T12:20:30;0.40;99.90
9371;DHT22;4725;48.384;8.984;2022-12-10T12:23:02;0.50;99.90
9371;DHT22;4725;48.384;8.984;2022-12-10T12:25:36;0.50;99.90
9371;DHT22;4725;48.384;8.984;2022-12-10T12:28:21;0.60;99.90
9371;DHT22;4725;48.384;8.984;2022-12-10T12:30:56;0.60;99.90
9371;DHT22;4725;48.384;8.984;2022-12-10T12:33:28;0.60;99.90
9371;DHT22;4725;48.384;8.984;2022-12-10T12:35:59;0.50;99.90
9371;DHT22;4725;48.384;8.984;2022-12-10T12:38:30;0.50;99.90
9371;DHT22;4725;48.384;8.984;2022-12-10T12:41:01;0.50;99.90
9371;DHT22;4725;48.384;8.984;2022-12-10T12:43:39;0.50;99.90
9371;DHT22;4725;48.384;8.984;2022-12-10T12:46:12;0.40;99.90
9371;DHT22;4725;48.384;8.984;2022-12-10T12:48:47;0.40;99.90
9371;DHT22;4725;48.384;8.984;2022-12-10T12:51:22;0.30;99.90
9371;DHT22;4725;48.384;8.984;2022-12-10T12:53:51;0.30;99.90
9371;DHT22;4725;48.384;8.984;2022-12-10T12:56:26;0.30;99.90
9371;DHT22;4725;48.384;8.984;2022-12-10T12:59:04;0.30;99.90
9371;DHT22;4725;48.384;8.984;2022-12-10T13:01:40;0.30;99.90
9371;DHT22;4725;48.384;8.984;2022-12-10T13:04:09;0.30;99.90
9371;DHT22;4725;48.384;8.984;2022-12-10T13:06:40;0.40;99.90
9371;DHT22;4725;48.384;8.984;2022-12-10T13:09:25;0.50;99.90
9371;DHT22;4725;48.384;8.984;2022-12-10T13:12:24;0.60;99.90
9371;DHT22;4725;48.384;8.984;2022-12-10T13:15:02;0.60;99.90
9371;DHT22;4725;48.384;8.984;2022-12-10T13:17:33;0.70;99.90
9371;DHT22;4725;48.384;8.984;2022-12-10T13:20:28;0.50;99.90
9371;DHT22;4725;48.384;8.984;2022-12-10T13:22:58;0.50;99.90
9371;DHT22;4725;48.384;8.984;2022-12-10T13:25:55;0.60;99.90
9371;DHT22;4725;48.384;8.984;2022-12-10T13:28:29;0.50;99.90
9371;DHT22;4725;48.384;8.984;2022-12-10T13:31:19;0.50;99.90
9371;DHT22;4725;48.384;8.984;2022-12-10T13:33:51;0.60;99.90
9371;DHT22;4725;48.384;8.984;2022-12-10T13:36:24;0.40;99.90
9371;DHT22;4725;48.384;8.984;2022-12-10T13:39:04;0.40;99.90
9371;DHT22;4725;48.384;8.984;2022-12-10T13:41:40;0.40;99.90
9371;DHT22;4725;48.384;8.984;2022-12-10T13:44:34;0.40;99.90
9371;DHT22;4725;48.384;8.984;2022-12-10T13:47:05;0.40;99.90
9371;DHT22;4725;48.384;8.984;2022-12-10T13:49:52;0.30;99.90
9371;DHT22;4725;48.384;8.984;2022-12-10T13:52:23;0.30;99.90
9371;DHT22;4725;48.384;8.984;2022-12-10T13:55:20;0.20;99.90
9371;DHT22;4725;48.384;8.984;2022-12-10T13:58:23;0.30;99.90
9371;DHT22;4725;48.384;8.984;2022-12-10T14:00:56;0.10;99.90
9371;DHT22;4725;48.384;8.984;2022-12-10T14:03:48;0.10;99.90
9371;DHT22;4725;48.384;8.984;2022-12-10T14:06:20;0.10;99.90
9371;DHT22;4725;48.384;8.984;2022-12-10T14:08:58;0.10;99.90
9371;DHT22;4725;48.384;8.984;2022-12-10T14:11:30;0.00;99.90
9371;DHT22;4725;48.384;8.984;2022-12-10T14:13:59;0.10;99.90
9371;DHT22;4725;48.384;8.984;2022-12-10T14:16:31;0.00;99.90
9371;DHT22;4725;48.384;8.984;2022-12-10T14:19:01;0.10;99.90
9371;DHT22;4725;48.384;8.984;2022-12-10T14:21:32;0.00;99.90
9371;DHT22;4725;48.384;8.984;2022-12-10T14:24:00;0.00;99.90
9371;DHT22;4725;48.384;8.984;2022-12-10T14:26:30;0.00;99.90
9371;DHT22;4725;48.384;8.984;2022-12-10T14:28:59;0.00;99.90
9371;DHT22;4725;48.384;8.984;2022-12-10T14:31:29;0.00;99.90
9371;DHT22;4725;48.384;8.984;2022-12-10T14:34:01;0.00;99.90
9371;DHT22;4725;48.384;8.984;2022-12-10T14:36:30;0.00;99.90
9371;DHT22;4725;48.384;8.984;2022-12-10T14:38:59;0.00;99.90
9371;DHT22;4725;48.384;8.984;2022-12-10T14:41:30;-0.10;99.90
9371;DHT22;4725;48.384;8.984;2022-12-10T14:44:02;-0.10;99.90
9371;DHT22;4725;48.384;8.984;2022-12-10T14:46:30;-0.20;99.90
9371;DHT22;4725;48.384;8.984;2022-12-10T14:48:58;-0.20;99.90
9371;DHT22;4725;48.384;8.984;2022-12-10T14:51:31;-0.20;99.90
9371;DHT22;4725;48.384;8.984;2022-12-10T14:53:59;-0.20;99.90
9371;DHT22;4725;48.384;8.984;2022-12-10T14:56:30;-0.20;99.90
9371;DHT22;4725;48.384;8.984;2022-12-10T14:59:04;-0.20;99.90
9371;DHT22;4725;48.384;8.984;2022-12-10T15:01:34;-0.20;99.90
9371;DHT22;4725;48.384;8.984;2022-12-10T15:04:04;-0.20;99.90
9371;DHT22;4725;48.384;8.984;2022-12-10T15:06:34;-0.20;99.90
9371;DHT22;4725;48.384;8.984;2022-12-10T15:09:02;-0.30;99.90
9371;DHT22;4725;48.384;8.984;2022-12-10T15:11:32;-0.40;99.90
9371;DHT22;4725;48.384;8.984;2022-12-10T15:14:00;-0.40;99.90
9371;DHT22;4725;48.384;8.984;2022-12-10T15:16:30;-0.40;99.90
9371;DHT22;4725;48.384;8.984;2022-12-10T15:19:19;-0.50;99.90
9371;DHT22;4725;48.384;8.984;2022-12-10T15:21:47;-0.40;99.90
9371;DHT22;4725;48.384;8.984;2022-12-10T15:24:17;-0.50;99.90
9371;DHT22;4725;48.384;8.984;2022-12-10T15:26:48;-0.50;99.90
9371;DHT22;4725;48.384;8.984;2022-12-10T15:29:33;-0.40;99.90
9371;DHT22;4725;48.384;8.984;2022-12-10T15:32:05;-0.50;99.90
9371;DHT22;4725;48.384;8.984;2022-12-10T15:34:38;-0.50;99.90
9371;DHT22;4725;48.384;8.984;2022-12-10T15:37:16;-0.50;99.90
9371;DHT22;4725;48.384;8.984;2022-12-10T15:39:46;-0.50;99.90
9371;DHT22;4725;48.384;8.984;2022-12-10T15:42:38;-0.60;99.90
9371;DHT22;4725;48.384;8.984;2022-12-10T15:45:16;-0.60;99.90
9371;DHT22;4725;48.384;8.984;2022-12-10T15:47:44;-0.70;99.90
9371;DHT22;4725;48.384;8.984;2022-12-10T15:50:12;-0.70;99.90
9371;DHT22;4725;48.384;8.984;2022-12-10T15:52:39;-0.60;99.90
9371;DHT22;4725;48.384;8.984;2022-12-10T15:55:07;-0.60;99.90
9371;DHT22;4725;48.384;8.984;2022-12-10T15:57:36;-0.60;99.90
9371;DHT22;4725;48.384;8.984;2022-12-10T16:00:07;-0.60;99.90
9371;DHT22;4725;48.384;8.984;2022-12-10T16:02:37;-0.70;99.90
9371;DHT22;4725;48.384;8.984;2022-12-10T16:05:11;-0.70;99.90
9371;DHT22;4725;48.384;8.984;2022-12-10T16:07:38;-0.70;99.90
9371;DHT22;4725;48.384;8.984;2022-12-10T16:10:06;-0.70;99.90
9371;DHT22;4725;48.384;8.984;2022-12-10T16:12:35;-0.70;99.90
9371;DHT22;4725;48.384;8.984;2022-12-10T16:15:05;-0.80;99.90
9371;DHT22;4725;48.384;8.984;2022-12-10T16:17:33;-0.70;99.90
9371;DHT22;4725;48.384;8.984;2022-12-10T16:20:12;-0.70;99.90
9371;DHT22;4725;48.384;8.984;2022-12-10T16:22:40;-0.80;99.90
9371;DHT22;4725;48.384;8.984;2022-12-10T16:25:07;-0.80;99.90
9371;DHT22;4725;48.384;8.984;2022-12-10T16:27:35;-0.90;99.90
9371;DHT22;4725;48.384;8.984;2022-12-10T16:30:17;-0.90;99.90
9371;DHT22;4725;48.384;8.984;2022-12-10T16:32:45;-0.90;99.90
9371;DHT22;4725;48.384;8.984;2022-12-10T16:35:13;-1.00;99.90
9371;DHT22;4725;48.384;8.984;2022-12-10T16:37:42;-1.00;99.90
9371;DHT22;4725;48.384;8.984;2022-12-10T16:40:13;-1.00;99.90